Saos II — SWZF — position and weather

sailwx.info

Track history (hours):
 
Tides and Currents Weather Stations Pressure Air Temp Water Temp Dewpoint Dewpoint Depression Visibility Wind Speed Wind Dir Waves Ship Positions

Saos II

Last reported at 2017-Sep-20 22:59 UTC. Time now 2017-Sep-21 03:40 UTC.
Position N 40°28' E 025°28'.

Length 75 m; draft 4.5 m.

Type: Passenger vessel. MMSI: 237352400.

Date/timePositionNaut miles runAvg speedWind from/ knotsBaromVisibWave heightAir tempDewpointWater temp
2017-Sep-20 22:59N 40°28' E 025°28'0 0.0
2017-Sep-20 21:22N 40°28' E 025°28'0 0.0
2017-Sep-20 21:00N 40°28' E 025°28'0 0.0
2017-Sep-20 20:30N 40°28' E 025°28'0 0.0
2017-Sep-20 20:00N 40°28' E 025°28'0 0.0
2017-Sep-20 19:30N 40°28' E 025°28'0 0.0
2017-Sep-20 19:00N 40°28' E 025°28'0 0.0
2017-Sep-20 18:27N 40°28' E 025°28'0 0.0
2017-Sep-20 18:00N 40°28' E 025°28'0 0.0
2017-Sep-20 17:30N 40°28' E 025°28'0 0.0
2017-Sep-20 17:00N 40°28' E 025°28'0 0.0
2017-Sep-20 16:30N 40°28' E 025°28'0 0.0
2017-Sep-20 16:00N 40°28' E 025°28'0 0.0
2017-Sep-20 15:30N 40°28' E 025°28'611.1
2017-Sep-20 14:58N 40°33' E 025°33'1313.8
2017-Sep-20 14:01N 40°43' E 025°45'713.9
2017-Sep-20 13:31N 40°48' E 025°51'3 0.2
2017-Sep-19 23:31N 40°51' E 025°53'0 0.0
2017-Sep-19 23:18N 40°51' E 025°53'0 0.0
2017-Sep-19 23:00N 40°51' E 025°53'0 0.0
2017-Sep-19 22:30N 40°51' E 025°53'0 0.0
2017-Sep-19 21:49N 40°51' E 025°53'0 0.0
2017-Sep-19 21:29N 40°51' E 025°53'0 0.0
2017-Sep-19 21:00N 40°51' E 025°53'0 0.0
2017-Sep-19 20:24N 40°51' E 025°53'0 0.0
2017-Sep-19 19:35N 40°51' E 025°53'0 0.0
2017-Sep-19 19:29N 40°51' E 025°53'0 0.0
2017-Sep-19 18:53N 40°51' E 025°53'0 0.0
2017-Sep-19 18:21N 40°51' E 025°53'2 6.0
2017-Sep-19 18:00N 40°48' E 025°53'714.2
2017-Sep-19 17:31N 40°43' E 025°47'714.2
2017-Sep-19 17:01N 40°38' E 025°40'714.4
2017-Sep-19 16:31N 40°33' E 025°33'611.8
2017-Sep-19 16:01N 40°28' E 025°28'0 0.0
2017-Sep-19 15:31N 40°28' E 025°28'0 0.0
2017-Sep-19 15:00N 40°28' E 025°28'0 0.0
2017-Sep-19 14:30N 40°28' E 025°28'0 0.0
2017-Sep-19 14:00N 40°28' E 025°28'0 0.0
2017-Sep-19 13:30N 40°28' E 025°28'0 0.0
2017-Sep-19 13:00N 40°28' E 025°28'0 0.0
2017-Sep-19 12:30N 40°28' E 025°28'0 0.0
2017-Sep-19 12:00N 40°28' E 025°28'0 0.0
2017-Sep-19 11:30N 40°28' E 025°28'0 0.0
2017-Sep-19 10:56N 40°28' E 025°28'0 0.0
2017-Sep-19 10:30N 40°28' E 025°28'0 0.0
2017-Sep-19 10:00N 40°28' E 025°28'0 0.0
2017-Sep-19 09:30N 40°28' E 025°28'0 0.0
2017-Sep-19 09:01N 40°28' E 025°28'0 0.3
2017-Sep-19 08:25N 40°28' E 025°28'2314.0
2017-Sep-19 06:48N 40°45' E 025°48'6 0.5
2017-Sep-18 18:17N 40°50' E 025°53'3 9.8
2017-Sep-18 18:00N 40°48' E 025°52'714.7
2017-Sep-18 17:30N 40°43' E 025°45'714.7
2017-Sep-18 17:00N 40°37' E 025°38'714.4
2017-Sep-18 16:30N 40°32' E 025°32'5 9.3
2017-Sep-18 16:00N 40°28' E 025°28'0 0.0
2017-Sep-18 15:30N 40°28' E 025°28'0 0.0
2017-Sep-18 15:00N 40°28' E 025°28'0 0.0
2017-Sep-18 14:30N 40°28' E 025°28'0 0.0
2017-Sep-18 14:01N 40°28' E 025°28'0 0.0
2017-Sep-18 13:30N 40°28' E 025°28'0 0.0
2017-Sep-18 13:00N 40°28' E 025°28'0 0.0
2017-Sep-18 12:30N 40°28' E 025°28'0 0.0
2017-Sep-18 12:00N 40°28' E 025°28'0 0.0
2017-Sep-18 11:30N 40°28' E 025°28'0 0.0
2017-Sep-18 11:00N 40°28' E 025°28'0 0.0
2017-Sep-18 10:31N 40°28' E 025°28'0 0.0
2017-Sep-18 10:00N 40°28' E 025°28'0 0.0
2017-Sep-18 09:30N 40°28' E 025°28'0 0.0
2017-Sep-18 09:00N 40°28' E 025°28'0 0.0
2017-Sep-18 08:30N 40°28' E 025°28'611.0
2017-Sep-18 07:59N 40°33' E 025°33'814.3
2017-Sep-18 07:26N 40°39' E 025°40'714.4
2017-Sep-18 06:55N 40°44' E 025°47'614.2
2017-Sep-18 06:28N 40°49' E 025°52'2 0.2
2017-Sep-17 22:25N 40°51' E 025°53'0 0.0
2017-Sep-17 22:00N 40°51' E 025°53'0 0.0
2017-Sep-17 21:22N 40°51' E 025°53'0 0.0
2017-Sep-17 21:00N 40°51' E 025°53'0 0.0
2017-Sep-17 20:30N 40°51' E 025°53'2 4.0
2017-Sep-17 20:00N 40°49' E 025°53'714.4
2017-Sep-17 19:30N 40°43' E 025°47'714.5
2017-Sep-17 19:00N 40°38' E 025°40'714.7
2017-Sep-17 18:30N 40°33' E 025°33'611.5
2017-Sep-17 18:00N 40°28' E 025°28'0 0.0
2017-Sep-17 17:31N 40°28' E 025°28'4 7.0
2017-Sep-17 17:00N 40°31' E 025°31'714.1
2017-Sep-17 16:30N 40°36' E 025°37'714.1
2017-Sep-17 16:00N 40°41' E 025°44'714.3
2017-Sep-17 15:30N 40°47' E 025°50'4 7.7
2017-Sep-17 14:57N 40°51' E 025°53'0 0.2
2017-Sep-17 14:11N 40°50' E 025°53'2 8.8
2017-Sep-17 14:00N 40°49' E 025°53'714.6
2017-Sep-17 13:30N 40°44' E 025°46'714.5
2017-Sep-17 13:00N 40°38' E 025°40'714.6
2017-Sep-17 12:30N 40°33' E 025°33'612.0
2017-Sep-17 12:00N 40°28' E 025°28'0 0.0
2017-Sep-17 11:30N 40°28' E 025°28'0 0.0
2017-Sep-17 11:00N 40°28' E 025°28'0 0.0
2017-Sep-17 10:30N 40°28' E 025°28'0 0.0
2017-Sep-17 10:00N 40°28' E 025°28'0 0.0
2017-Sep-17 09:30N 40°28' E 025°28'0 0.0
2017-Sep-17 09:00N 40°28' E 025°28'0 0.0
2017-Sep-17 08:30N 40°28' E 025°28'0 0.0
2017-Sep-17 08:00N 40°28' E 025°28'0 0.0
2017-Sep-17 07:00N 40°28' E 025°28'0 0.0
2017-Sep-17 06:30N 40°28' E 025°28'0 0.0
2017-Sep-17 06:00N 40°28' E 025°28'0 0.0
2017-Sep-17 05:30N 40°28' E 025°28'0 0.0
2017-Sep-17 05:00N 40°28' E 025°28'0 0.0
2017-Sep-17 04:30N 40°28' E 025°28'0 0.0
2017-Sep-17 04:00N 40°28' E 025°28'0 0.0
2017-Sep-17 03:30N 40°28' E 025°28'0 0.0
2017-Sep-17 03:00N 40°28' E 025°28'0 0.0
2017-Sep-17 02:30N 40°28' E 025°28'0 0.0
2017-Sep-17 02:00N 40°28' E 025°28'0 0.0
2017-Sep-17 01:30N 40°28' E 025°28'0 0.0
2017-Sep-17 00:59N 40°28' E 025°28'0 0.0
2017-Sep-17 00:30N 40°28' E 025°28'0 0.0
2017-Sep-17 00:00N 40°28' E 025°28'0 0.0
2017-Sep-16 23:30N 40°28' E 025°28'0 0.0
2017-Sep-16 23:00N 40°28' E 025°28'0 0.0
2017-Sep-16 22:30N 40°28' E 025°28'0 0.0
2017-Sep-16 22:00N 40°28' E 025°28'0 0.0
2017-Sep-16 21:30N 40°28' E 025°28'0 0.0
2017-Sep-16 21:00N 40°28' E 025°28'0 0.0
2017-Sep-16 20:30N 40°28' E 025°28'0 0.0
2017-Sep-16 20:00N 40°28' E 025°28'0 0.0
2017-Sep-16 19:30N 40°28' E 025°28'0 0.0
2017-Sep-16 18:59N 40°28' E 025°28'0 0.0
2017-Sep-16 18:12N 40°28' E 025°28'0 0.0
2017-Sep-16 17:52N 40°28' E 025°28'0 0.0
2017-Sep-16 17:30N 40°28' E 025°28'0 0.0
2017-Sep-16 17:00N 40°28' E 025°28'0 0.0
2017-Sep-16 16:30N 40°28' E 025°28'3 6.6
2017-Sep-16 16:00N 40°31' E 025°31'714.2
2017-Sep-16 15:30N 40°36' E 025°37'814.4
2017-Sep-16 14:58N 40°42' E 025°44'1113.7
2017-Sep-16 14:09N 40°50' E 025°54'10 5.7
2017-Sep-16 12:29N 40°43' E 025°46'1414.3
2017-Sep-16 11:31N 40°33' E 025°33'214.4
2017-Sep-16 11:23N 40°32' E 025°31'410.3
2017-Sep-16 11:01N 40°28' E 025°28'0 0.0
2017-Sep-16 10:30N 40°28' E 025°28'0 0.0
2017-Sep-16 10:00N 40°28' E 025°28'0 0.0
2017-Sep-16 09:31N 40°28' E 025°28'0 0.0
2017-Sep-16 07:02N 40°28' E 025°28'0 0.0
2017-Sep-16 06:54N 40°28' E 025°28'0 0.0
2017-Sep-16 06:07N 40°28' E 025°28'0 0.0
2017-Sep-16 05:56N 40°28' E 025°28'0 0.0
2017-Sep-16 05:29N 40°28' E 025°28'0 0.0
2017-Sep-16 04:22N 40°28' E 025°28'0 0.0
2017-Sep-16 03:53N 40°28' E 025°28'0 0.0
2017-Sep-16 03:30N 40°28' E 025°28'0 0.0
2017-Sep-16 02:51N 40°28' E 025°28'0 0.0
2017-Sep-16 02:15N 40°28' E 025°28'0 0.0
2017-Sep-16 01:58N 40°28' E 025°28'0 0.0
2017-Sep-16 01:26N 40°28' E 025°28'0 0.0
2017-Sep-16 00:38N 40°28' E 025°28'0 0.0
2017-Sep-16 00:10N 40°28' E 025°28'0 0.0
2017-Sep-15 23:27N 40°28' E 025°28'0 0.0
2017-Sep-15 22:59N 40°28' E 025°28'0 0.0
2017-Sep-15 22:30N 40°28' E 025°28'0 0.0
2017-Sep-15 22:00N 40°28' E 025°28'0 0.0
2017-Sep-15 21:30N 40°28' E 025°28'0 0.0
2017-Sep-15 21:00N 40°28' E 025°28'0 0.0
2017-Sep-15 20:30N 40°28' E 025°28'0 0.0
2017-Sep-15 20:00N 40°28' E 025°28'0 0.0
2017-Sep-15 19:30N 40°28' E 025°28'0 0.0
2017-Sep-15 19:00N 40°28' E 025°28'0 0.0
2017-Sep-15 18:30N 40°28' E 025°28'0 0.0
2017-Sep-15 18:00N 40°28' E 025°28'0 0.0
2017-Sep-15 17:30N 40°28' E 025°28'0 0.0
2017-Sep-15 17:00N 40°28' E 025°28'0 0.0
2017-Sep-15 16:30N 40°28' E 025°28'0 0.0
2017-Sep-15 16:00N 40°28' E 025°28'0 0.0
2017-Sep-15 15:30N 40°28' E 025°28'19 1.9
2017-Sep-15 05:30N 40°43' E 025°45'1114.2
2017-Sep-15 04:43N 40°35' E 025°35'811.0
2017-Sep-15 03:59N 40°28' E 025°28'0 0.0
2017-Sep-15 03:30N 40°28' E 025°28'0 0.0
2017-Sep-15 03:00N 40°28' E 025°28'0 0.0
2017-Sep-15 01:58N 40°28' E 025°28'0 0.0
2017-Sep-15 01:30N 40°28' E 025°28'0 0.0
2017-Sep-15 00:05N 40°28' E 025°28'0 0.0
2017-Sep-14 23:56N 40°28' E 025°28'0 0.0
2017-Sep-14 23:30N 40°28' E 025°28'0 0.0
2017-Sep-14 23:00N 40°28' E 025°28'0 0.0
2017-Sep-14 22:30N 40°28' E 025°28'0 0.0
2017-Sep-14 21:59N 40°28' E 025°28'0 0.0
2017-Sep-14 21:29N 40°28' E 025°28'0 0.0
2017-Sep-14 21:00N 40°28' E 025°28'0 0.0
2017-Sep-14 19:05N 40°28' E 025°28'0 0.1
2017-Sep-14 19:00N 40°28' E 025°28'0 0.0
2017-Sep-14 18:30N 40°28' E 025°28'0 0.0
2017-Sep-14 18:00N 40°28' E 025°28'0 0.0
2017-Sep-14 17:30N 40°28' E 025°28'0 0.0
2017-Sep-14 17:01N 40°28' E 025°28'0 0.0
2017-Sep-14 16:30N 40°28' E 025°28'0 0.0
2017-Sep-14 16:00N 40°28' E 025°28'1 2.2
2017-Sep-14 15:30N 40°30' E 025°28'714.4
2017-Sep-14 15:00N 40°35' E 025°35'8 0.7
2017-Sep-14 03:10N 40°28' E 025°28'0 0.0
2017-Sep-14 02:59N 40°28' E 025°28'0 0.0
2017-Sep-14 02:29N 40°28' E 025°28'0 0.0
2017-Sep-14 02:00N 40°28' E 025°28'0 0.0
2017-Sep-14 01:30N 40°28' E 025°28'0 0.0
2017-Sep-14 00:59N 40°28' E 025°28'0 0.0
2017-Sep-14 00:23N 40°28' E 025°28'0 0.0
2017-Sep-13 23:59N 40°28' E 025°28'0 0.0
2017-Sep-13 23:27N 40°28' E 025°28'0 0.0
2017-Sep-13 23:00N 40°28' E 025°28'0 0.0
2017-Sep-13 22:31N 40°28' E 025°28'0 0.0
2017-Sep-13 22:01N 40°28' E 025°28'0 0.0
2017-Sep-13 21:31N 40°28' E 025°28'0 0.0
2017-Sep-13 21:01N 40°28' E 025°28'0 0.0
2017-Sep-13 20:30N 40°28' E 025°28'0 0.0
2017-Sep-13 20:01N 40°28' E 025°28'0 0.0
2017-Sep-13 19:31N 40°28' E 025°28'0 0.0
2017-Sep-13 19:00N 40°28' E 025°28'0 0.0
2017-Sep-13 18:30N 40°28' E 025°28'0 0.0
2017-Sep-13 18:00N 40°28' E 025°28'0 0.0
2017-Sep-13 17:31N 40°28' E 025°28'0 0.0
2017-Sep-13 17:00N 40°28' E 025°28'0 0.0
2017-Sep-13 16:31N 40°28' E 025°28'0 0.0
2017-Sep-13 16:00N 40°28' E 025°28'0 0.0
2017-Sep-13 15:30N 40°28' E 025°28'611.9
2017-Sep-13 15:01N 40°33' E 025°33'714.3
2017-Sep-13 14:31N 40°38' E 025°40'714.1
2017-Sep-13 14:00N 40°44' E 025°46'714.1
2017-Sep-13 13:30N 40°49' E 025°52'12 0.6
2017-Sep-12 17:15N 40°40' E 025°42'514.7
2017-Sep-12 16:54N 40°36' E 025°37'714.5
2017-Sep-12 16:26N 40°32' E 025°31'4 9.0
2017-Sep-12 16:00N 40°28' E 025°28'0 0.0
2017-Sep-12 15:30N 40°28' E 025°28'0 0.0
2017-Sep-12 15:00N 40°28' E 025°28'0 0.0
2017-Sep-12 14:30N 40°28' E 025°28'0 0.0
2017-Sep-12 13:48N 40°28' E 025°28'0 0.0
2017-Sep-12 11:48N 40°28' E 025°28'0 0.0
2017-Sep-12 10:21N 40°28' E 025°28'0 0.0
2017-Sep-12 09:54N 40°28' E 025°28'0 0.0
2017-Sep-12 09:30N 40°28' E 025°28'0 0.0
2017-Sep-12 08:54N 40°28' E 025°28'1 2.4
2017-Sep-12 08:28N 40°30' E 025°28'28 2.0
2017-Sep-11 18:15N 40°50' E 025°53'2 9.1
2017-Sep-11 17:59N 40°48' E 025°52'714.2
2017-Sep-11 17:30N 40°43' E 025°46'814.3
2017-Sep-11 16:58N 40°38' E 025°39'714.5
2017-Sep-11 16:30N 40°33' E 025°33'611.1
2017-Sep-11 16:00N 40°28' E 025°28'0 0.0
2017-Sep-11 15:30N 40°28' E 025°28'0 0.0
2017-Sep-11 15:00N 40°28' E 025°28'0 0.0
2017-Sep-11 14:30N 40°28' E 025°28'0 0.0
2017-Sep-11 13:59N 40°28' E 025°28'0 0.0
2017-Sep-11 13:28N 40°28' E 025°28'0 0.0
2017-Sep-11 13:00N 40°28' E 025°28'0 0.0
2017-Sep-11 12:30N 40°28' E 025°28'0 0.0
2017-Sep-11 11:59N 40°28' E 025°28'0 0.0
2017-Sep-11 11:28N 40°28' E 025°28'0 0.0
2017-Sep-11 10:51N 40°28' E 025°28'0 0.0
2017-Sep-11 10:30N 40°28' E 025°28'0 0.0
2017-Sep-11 10:00N 40°28' E 025°28'0 0.0
2017-Sep-11 09:30N 40°28' E 025°28'0 0.0
2017-Sep-11 09:00N 40°28' E 025°28'0 0.7
2017-Sep-11 08:27N 40°29' E 025°28'1614.0
2017-Sep-11 07:19N 40°40' E 025°42'1114.1
2017-Sep-11 06:33N 40°48' E 025°52'114.4
2017-Sep-11 06:30N 40°49' E 025°53'  
Track history (hours):
 
Tides and Currents Weather Stations Pressure Air Temp Water Temp Dewpoint Dewpoint Depression Visibility Wind Speed Wind Dir Waves Ship Positions

Saos II

Last reported at 2017-Sep-20 22:59 UTC. Time now 2017-Sep-21 03:40 UTC.
Position N 40°28' E 025°28'.

Length 75 m; draft 4.5 m.

Type: Passenger vessel. MMSI: 237352400.

Date/timePositionNaut miles runAvg speedWind from/ knotsBaromVisibWave heightAir tempDewpointWater temp
2017-Sep-20 22:59N 40°28' E 025°28'0 0.0
2017-Sep-20 21:22N 40°28' E 025°28'0 0.0
2017-Sep-20 21:00N 40°28' E 025°28'0 0.0
2017-Sep-20 20:30N 40°28' E 025°28'0 0.0
2017-Sep-20 20:00N 40°28' E 025°28'0 0.0
2017-Sep-20 19:30N 40°28' E 025°28'0 0.0
2017-Sep-20 19:00N 40°28' E 025°28'0 0.0
2017-Sep-20 18:27N 40°28' E 025°28'0 0.0
2017-Sep-20 18:00N 40°28' E 025°28'0 0.0
2017-Sep-20 17:30N 40°28' E 025°28'0 0.0
2017-Sep-20 17:00N 40°28' E 025°28'0 0.0
2017-Sep-20 16:30N 40°28' E 025°28'0 0.0
2017-Sep-20 16:00N 40°28' E 025°28'0 0.0
2017-Sep-20 15:30N 40°28' E 025°28'611.1
2017-Sep-20 14:58N 40°33' E 025°33'1313.8
2017-Sep-20 14:01N 40°43' E 025°45'713.9
2017-Sep-20 13:31N 40°48' E 025°51'3 0.2
2017-Sep-19 23:31N 40°51' E 025°53'0 0.0
2017-Sep-19 23:18N 40°51' E 025°53'0 0.0
2017-Sep-19 23:00N 40°51' E 025°53'0 0.0
2017-Sep-19 22:30N 40°51' E 025°53'0 0.0
2017-Sep-19 21:49N 40°51' E 025°53'0 0.0
2017-Sep-19 21:29N 40°51' E 025°53'0 0.0
2017-Sep-19 21:00N 40°51' E 025°53'0 0.0
2017-Sep-19 20:24N 40°51' E 025°53'0 0.0
2017-Sep-19 19:35N 40°51' E 025°53'0 0.0
2017-Sep-19 19:29N 40°51' E 025°53'0 0.0
2017-Sep-19 18:53N 40°51' E 025°53'0 0.0
2017-Sep-19 18:21N 40°51' E 025°53'2 6.0
2017-Sep-19 18:00N 40°48' E 025°53'714.2
2017-Sep-19 17:31N 40°43' E 025°47'714.2
2017-Sep-19 17:01N 40°38' E 025°40'714.4
2017-Sep-19 16:31N 40°33' E 025°33'611.8
2017-Sep-19 16:01N 40°28' E 025°28'0 0.0
2017-Sep-19 15:31N 40°28' E 025°28'0 0.0
2017-Sep-19 15:00N 40°28' E 025°28'0 0.0
2017-Sep-19 14:30N 40°28' E 025°28'0 0.0
2017-Sep-19 14:00N 40°28' E 025°28'0 0.0
2017-Sep-19 13:30N 40°28' E 025°28'0 0.0
2017-Sep-19 13:00N 40°28' E 025°28'0 0.0
2017-Sep-19 12:30N 40°28' E 025°28'0 0.0
2017-Sep-19 12:00N 40°28' E 025°28'0 0.0
2017-Sep-19 11:30N 40°28' E 025°28'0 0.0
2017-Sep-19 10:56N 40°28' E 025°28'0 0.0
2017-Sep-19 10:30N 40°28' E 025°28'0 0.0
2017-Sep-19 10:00N 40°28' E 025°28'0 0.0
2017-Sep-19 09:30N 40°28' E 025°28'0 0.0
2017-Sep-19 09:01N 40°28' E 025°28'0 0.3
2017-Sep-19 08:25N 40°28' E 025°28'2314.0
2017-Sep-19 06:48N 40°45' E 025°48'6 0.5
2017-Sep-18 18:17N 40°50' E 025°53'3 9.8
2017-Sep-18 18:00N 40°48' E 025°52'714.7
2017-Sep-18 17:30N 40°43' E 025°45'714.7
2017-Sep-18 17:00N 40°37' E 025°38'714.4
2017-Sep-18 16:30N 40°32' E 025°32'5 9.3
2017-Sep-18 16:00N 40°28' E 025°28'0 0.0
2017-Sep-18 15:30N 40°28' E 025°28'0 0.0
2017-Sep-18 15:00N 40°28' E 025°28'0 0.0
2017-Sep-18 14:30N 40°28' E 025°28'0 0.0
2017-Sep-18 14:01N 40°28' E 025°28'0 0.0
2017-Sep-18 13:30N 40°28' E 025°28'0 0.0
2017-Sep-18 13:00N 40°28' E 025°28'0 0.0
2017-Sep-18 12:30N 40°28' E 025°28'0 0.0
2017-Sep-18 12:00N 40°28' E 025°28'0 0.0
2017-Sep-18 11:30N 40°28' E 025°28'0 0.0
2017-Sep-18 11:00N 40°28' E 025°28'0 0.0
2017-Sep-18 10:31N 40°28' E 025°28'0 0.0
2017-Sep-18 10:00N 40°28' E 025°28'0 0.0
2017-Sep-18 09:30N 40°28' E 025°28'0 0.0
2017-Sep-18 09:00N 40°28' E 025°28'0 0.0
2017-Sep-18 08:30N 40°28' E 025°28'611.0
2017-Sep-18 07:59N 40°33' E 025°33'814.3
2017-Sep-18 07:26N 40°39' E 025°40'714.4
2017-Sep-18 06:55N 40°44' E 025°47'614.2
2017-Sep-18 06:28N 40°49' E 025°52'2 0.2
2017-Sep-17 22:25N 40°51' E 025°53'0 0.0
2017-Sep-17 22:00N 40°51' E 025°53'0 0.0
2017-Sep-17 21:22N 40°51' E 025°53'0 0.0
2017-Sep-17 21:00N 40°51' E 025°53'0 0.0
2017-Sep-17 20:30N 40°51' E 025°53'2 4.0
2017-Sep-17 20:00N 40°49' E 025°53'714.4
2017-Sep-17 19:30N 40°43' E 025°47'714.5
2017-Sep-17 19:00N 40°38' E 025°40'714.7
2017-Sep-17 18:30N 40°33' E 025°33'611.5
2017-Sep-17 18:00N 40°28' E 025°28'0 0.0
2017-Sep-17 17:31N 40°28' E 025°28'4 7.0
2017-Sep-17 17:00N 40°31' E 025°31'714.1
2017-Sep-17 16:30N 40°36' E 025°37'714.1
2017-Sep-17 16:00N 40°41' E 025°44'714.3
2017-Sep-17 15:30N 40°47' E 025°50'4 7.7
2017-Sep-17 14:57N 40°51' E 025°53'0 0.2
2017-Sep-17 14:11N 40°50' E 025°53'2 8.8
2017-Sep-17 14:00N 40°49' E 025°53'714.6
2017-Sep-17 13:30N 40°44' E 025°46'714.5
2017-Sep-17 13:00N 40°38' E 025°40'714.6
2017-Sep-17 12:30N 40°33' E 025°33'612.0
2017-Sep-17 12:00N 40°28' E 025°28'0 0.0
2017-Sep-17 11:30N 40°28' E 025°28'0 0.0
2017-Sep-17 11:00N 40°28' E 025°28'0 0.0
2017-Sep-17 10:30N 40°28' E 025°28'0 0.0
2017-Sep-17 10:00N 40°28' E 025°28'0 0.0
2017-Sep-17 09:30N 40°28' E 025°28'0 0.0
2017-Sep-17 09:00N 40°28' E 025°28'0 0.0
2017-Sep-17 08:30N 40°28' E 025°28'0 0.0
2017-Sep-17 08:00N 40°28' E 025°28'0 0.0
2017-Sep-17 07:00N 40°28' E 025°28'0 0.0
2017-Sep-17 06:30N 40°28' E 025°28'0 0.0
2017-Sep-17 06:00N 40°28' E 025°28'0 0.0
2017-Sep-17 05:30N 40°28' E 025°28'0 0.0
2017-Sep-17 05:00N 40°28' E 025°28'0 0.0
2017-Sep-17 04:30N 40°28' E 025°28'0 0.0
2017-Sep-17 04:00N 40°28' E 025°28'0 0.0
2017-Sep-17 03:30N 40°28' E 025°28'0 0.0
2017-Sep-17 03:00N 40°28' E 025°28'0 0.0
2017-Sep-17 02:30N 40°28' E 025°28'0 0.0
2017-Sep-17 02:00N 40°28' E 025°28'0 0.0
2017-Sep-17 01:30N 40°28' E 025°28'0 0.0
2017-Sep-17 00:59N 40°28' E 025°28'0 0.0
2017-Sep-17 00:30N 40°28' E 025°28'0 0.0
2017-Sep-17 00:00N 40°28' E 025°28'0 0.0
2017-Sep-16 23:30N 40°28' E 025°28'0 0.0
2017-Sep-16 23:00N 40°28' E 025°28'0 0.0
2017-Sep-16 22:30N 40°28' E 025°28'0 0.0
2017-Sep-16 22:00N 40°28' E 025°28'0 0.0
2017-Sep-16 21:30N 40°28' E 025°28'0 0.0
2017-Sep-16 21:00N 40°28' E 025°28'0 0.0
2017-Sep-16 20:30N 40°28' E 025°28'0 0.0
2017-Sep-16 20:00N 40°28' E 025°28'0 0.0
2017-Sep-16 19:30N 40°28' E 025°28'0 0.0
2017-Sep-16 18:59N 40°28' E 025°28'0 0.0
2017-Sep-16 18:12N 40°28' E 025°28'0 0.0
2017-Sep-16 17:52N 40°28' E 025°28'0 0.0
2017-Sep-16 17:30N 40°28' E 025°28'0 0.0
2017-Sep-16 17:00N 40°28' E 025°28'0 0.0
2017-Sep-16 16:30N 40°28' E 025°28'3 6.6
2017-Sep-16 16:00N 40°31' E 025°31'714.2
2017-Sep-16 15:30N 40°36' E 025°37'814.4
2017-Sep-16 14:58N 40°42' E 025°44'1113.7
2017-Sep-16 14:09N 40°50' E 025°54'10 5.7
2017-Sep-16 12:29N 40°43' E 025°46'1414.3
2017-Sep-16 11:31N 40°33' E 025°33'214.4
2017-Sep-16 11:23N 40°32' E 025°31'410.3
2017-Sep-16 11:01N 40°28' E 025°28'0 0.0
2017-Sep-16 10:30N 40°28' E 025°28'0 0.0
2017-Sep-16 10:00N 40°28' E 025°28'0 0.0
2017-Sep-16 09:31N 40°28' E 025°28'0 0.0
2017-Sep-16 07:02N 40°28' E 025°28'0 0.0
2017-Sep-16 06:54N 40°28' E 025°28'0 0.0
2017-Sep-16 06:07N 40°28' E 025°28'0 0.0
2017-Sep-16 05:56N 40°28' E 025°28'0 0.0
2017-Sep-16 05:29N 40°28' E 025°28'0 0.0
2017-Sep-16 04:22N 40°28' E 025°28'0 0.0
2017-Sep-16 03:53N 40°28' E 025°28'0 0.0
2017-Sep-16 03:30N 40°28' E 025°28'0 0.0
2017-Sep-16 02:51N 40°28' E 025°28'0 0.0
2017-Sep-16 02:15N 40°28' E 025°28'0 0.0
2017-Sep-16 01:58N 40°28' E 025°28'0 0.0
2017-Sep-16 01:26N 40°28' E 025°28'0 0.0
2017-Sep-16 00:38N 40°28' E 025°28'0 0.0
2017-Sep-16 00:10N 40°28' E 025°28'0 0.0
2017-Sep-15 23:27N 40°28' E 025°28'0 0.0
2017-Sep-15 22:59N 40°28' E 025°28'0 0.0
2017-Sep-15 22:30N 40°28' E 025°28'0 0.0
2017-Sep-15 22:00N 40°28' E 025°28'0 0.0
2017-Sep-15 21:30N 40°28' E 025°28'0 0.0
2017-Sep-15 21:00N 40°28' E 025°28'0 0.0
2017-Sep-15 20:30N 40°28' E 025°28'0 0.0
2017-Sep-15 20:00N 40°28' E 025°28'0 0.0
2017-Sep-15 19:30N 40°28' E 025°28'0 0.0
2017-Sep-15 19:00N 40°28' E 025°28'0 0.0
2017-Sep-15 18:30N 40°28' E 025°28'0 0.0
2017-Sep-15 18:00N 40°28' E 025°28'0 0.0
2017-Sep-15 17:30N 40°28' E 025°28'0 0.0
2017-Sep-15 17:00N 40°28' E 025°28'0 0.0
2017-Sep-15 16:30N 40°28' E 025°28'0 0.0
2017-Sep-15 16:00N 40°28' E 025°28'0 0.0
2017-Sep-15 15:30N 40°28' E 025°28'19 1.9
2017-Sep-15 05:30N 40°43' E 025°45'1114.2
2017-Sep-15 04:43N 40°35' E 025°35'811.0
2017-Sep-15 03:59N 40°28' E 025°28'0 0.0
2017-Sep-15 03:30N 40°28' E 025°28'0 0.0
2017-Sep-15 03:00N 40°28' E 025°28'0 0.0
2017-Sep-15 01:58N 40°28' E 025°28'0 0.0
2017-Sep-15 01:30N 40°28' E 025°28'0 0.0
2017-Sep-15 00:05N 40°28' E 025°28'0 0.0
2017-Sep-14 23:56N 40°28' E 025°28'0 0.0
2017-Sep-14 23:30N 40°28' E 025°28'0 0.0
2017-Sep-14 23:00N 40°28' E 025°28'0 0.0
2017-Sep-14 22:30N 40°28' E 025°28'0 0.0
2017-Sep-14 21:59N 40°28' E 025°28'0 0.0
2017-Sep-14 21:29N 40°28' E 025°28'0 0.0
2017-Sep-14 21:00N 40°28' E 025°28'0 0.0
2017-Sep-14 19:05N 40°28' E 025°28'0 0.1
2017-Sep-14 19:00N 40°28' E 025°28'0 0.0
2017-Sep-14 18:30N 40°28' E 025°28'0 0.0
2017-Sep-14 18:00N 40°28' E 025°28'0 0.0
2017-Sep-14 17:30N 40°28' E 025°28'0 0.0
2017-Sep-14 17:01N 40°28' E 025°28'0 0.0
2017-Sep-14 16:30N 40°28' E 025°28'0 0.0
2017-Sep-14 16:00N 40°28' E 025°28'1 2.2
2017-Sep-14 15:30N 40°30' E 025°28'714.4
2017-Sep-14 15:00N 40°35' E 025°35'8 0.7
2017-Sep-14 03:10N 40°28' E 025°28'0 0.0
2017-Sep-14 02:59N 40°28' E 025°28'0 0.0
2017-Sep-14 02:29N 40°28' E 025°28'0 0.0
2017-Sep-14 02:00N 40°28' E 025°28'0 0.0
2017-Sep-14 01:30N 40°28' E 025°28'0 0.0
2017-Sep-14 00:59N 40°28' E 025°28'0 0.0
2017-Sep-14 00:23N 40°28' E 025°28'0 0.0
2017-Sep-13 23:59N 40°28' E 025°28'0 0.0
2017-Sep-13 23:27N 40°28' E 025°28'0 0.0
2017-Sep-13 23:00N 40°28' E 025°28'0 0.0
2017-Sep-13 22:31N 40°28' E 025°28'0 0.0
2017-Sep-13 22:01N 40°28' E 025°28'0 0.0
2017-Sep-13 21:31N 40°28' E 025°28'0 0.0
2017-Sep-13 21:01N 40°28' E 025°28'0 0.0
2017-Sep-13 20:30N 40°28' E 025°28'0 0.0
2017-Sep-13 20:01N 40°28' E 025°28'0 0.0
2017-Sep-13 19:31N 40°28' E 025°28'0 0.0
2017-Sep-13 19:00N 40°28' E 025°28'0 0.0
2017-Sep-13 18:30N 40°28' E 025°28'0 0.0
2017-Sep-13 18:00N 40°28' E 025°28'0 0.0
2017-Sep-13 17:31N 40°28' E 025°28'0 0.0
2017-Sep-13 17:00N 40°28' E 025°28'0 0.0
2017-Sep-13 16:31N 40°28' E 025°28'0 0.0
2017-Sep-13 16:00N 40°28' E 025°28'0 0.0
2017-Sep-13 15:30N 40°28' E 025°28'611.9
2017-Sep-13 15:01N 40°33' E 025°33'714.3
2017-Sep-13 14:31N 40°38' E 025°40'714.1
2017-Sep-13 14:00N 40°44' E 025°46'714.1
2017-Sep-13 13:30N 40°49' E 025°52'12 0.6
2017-Sep-12 17:15N 40°40' E 025°42'514.7
2017-Sep-12 16:54N 40°36' E 025°37'714.5
2017-Sep-12 16:26N 40°32' E 025°31'4 9.0
2017-Sep-12 16:00N 40°28' E 025°28'0 0.0
2017-Sep-12 15:30N 40°28' E 025°28'0 0.0
2017-Sep-12 15:00N 40°28' E 025°28'0 0.0
2017-Sep-12 14:30N 40°28' E 025°28'0 0.0
2017-Sep-12 13:48N 40°28' E 025°28'0 0.0
2017-Sep-12 11:48N 40°28' E 025°28'0 0.0
2017-Sep-12 10:21N 40°28' E 025°28'0 0.0
2017-Sep-12 09:54N 40°28' E 025°28'0 0.0
2017-Sep-12 09:30N 40°28' E 025°28'0 0.0
2017-Sep-12 08:54N 40°28' E 025°28'1 2.4
2017-Sep-12 08:28N 40°30' E 025°28'28 2.0
2017-Sep-11 18:15N 40°50' E 025°53'2 9.1
2017-Sep-11 17:59N 40°48' E 025°52'714.2
2017-Sep-11 17:30N 40°43' E 025°46'814.3
2017-Sep-11 16:58N 40°38' E 025°39'714.5
2017-Sep-11 16:30N 40°33' E 025°33'611.1
2017-Sep-11 16:00N 40°28' E 025°28'0 0.0
2017-Sep-11 15:30N 40°28' E 025°28'0 0.0
2017-Sep-11 15:00N 40°28' E 025°28'0 0.0
2017-Sep-11 14:30N 40°28' E 025°28'0 0.0
2017-Sep-11 13:59N 40°28' E 025°28'0 0.0
2017-Sep-11 13:28N 40°28' E 025°28'0 0.0
2017-Sep-11 13:00N 40°28' E 025°28'0 0.0
2017-Sep-11 12:30N 40°28' E 025°28'0 0.0
2017-Sep-11 11:59N 40°28' E 025°28'0 0.0
2017-Sep-11 11:28N 40°28' E 025°28'0 0.0
2017-Sep-11 10:51N 40°28' E 025°28'0 0.0
2017-Sep-11 10:30N 40°28' E 025°28'0 0.0
2017-Sep-11 10:00N 40°28' E 025°28'0 0.0
2017-Sep-11 09:30N 40°28' E 025°28'0 0.0
2017-Sep-11 09:00N 40°28' E 025°28'0 0.7
2017-Sep-11 08:27N 40°29' E 025°28'1614.0
2017-Sep-11 07:19N 40°40' E 025°42'1114.1
2017-Sep-11 06:33N 40°48' E 025°52'114.4
2017-Sep-11 06:30N 40°49' E 025°53'  

Dump ship's entire track history